OMRK

Details ICAO OMRK (RKT)
Name Ras Al Khaimah International
Region United Arab Emirates
Timezone Asia/Dubai (UTC+4.0)
Plans Departing 152
Arriving 62
Stats Elevation 94 ft / 29 m (AMSL)
Location 25.613400° 55.938800°
Runways 1
Magnetic Variation 2.111° E
Sunrise 2019-02-21 02:48:29 UTC / 2019-02-21 06:48:29 Local
Sunset 2019-02-21 14:14:19 UTC / 2019-02-21 18:14:19 Local
Advertisement - Login to hide

Runways

ID Width Length Bearing (true/mag) Surface Threshold Overrun Markings Lighting
16 148 ft / 45 m 12,348 ft / 3,764 m 164.85° / 162.74° ASPHALT 0 ft / 0 m 0 ft / 0 m PREC-APP EDGE THRESHOLD SALS
34 148 ft / 45 m 12,348 ft / 3,764 m 344.85° / 342.74° ASPHALT 0 ft / 0 m 0 ft / 0 m PREC-APP EDGE THRESHOLD ALSF-I

Map

Weather


0- 5 10 15 20 25 30 35+ Temperature / °C

Clouds and Precipitation
Forecast for 2019-02-21 12:00 UTC. Updated 6 hours ago

Ground ~20,000 ft ~40,000 ft Winds

METAR

OMRK 211500Z 36006KT CAVOK 20/12 Q1020 A3012

TAF

TAF OMRK 211058Z 2112/2218 34010KT 8000 FEW040 BECMG 2115/2117 VRB02KT BECMG 2209/2211 35010KT BECMG 2215/2217 10007KT

Frequencies

Recorded 126.07 MHz ATIS
Tower 118.25 MHz
Ground 121.60 MHz
Warning: Do not use this data for real-world aviation or navigation. No guarantee of current accuracy is given.